Terminal Aerodrome Forecast
Issued by NWS

Home | Current Version | Previous Version | Text Only | Print | Product List | Glossary On
Versions: 1 2 3 4 5 6 7 8 9 10 11 12 13 14 15 16 17 18 19 20 21 22 23 24 25 26 27 28 29 30 31 32 33 34 35 36 37 38 39
000
FTUS45 KPSR 301900 AAA
TAFIWA
TAF AMD
KIWA 301923Z 3019/3118 10005KT 5SM -SHRA SCT010 OVC015
      TEMPO 3019/3022 2SM -RA BR BKN010
     FM302200 10006KT 5SM -SHRA BR SCT008 SCT015 OVC020
      TEMPO 3022/3102 -RA SCT007 BKN015 OVC030
     FM310200 10005KT P6SM SCT015 BKN020 OVC030
      TEMPO 3102/3106 5SM -SHRA BR
     FM310600 VRB05KT P6SM -SHRA SCT007 OVC015
      TEMPO 3110/3114 3SM RA BR BKN007=

USA.gov is the U.S. government's official web portal to all federal, state and local government web resources and services.